sensor_id;sensor_type;location;lat;lon;timestamp;pressure;altitude;pressure_sealevel;temperature;humidity
55347;BME280;41218;55.700;38.270;2023-04-15T00:03:07;101014.69;;;1.35;33.22
55347;BME280;41218;55.700;38.270;2023-04-15T00:08:08;101019.31;;;1.29;33.09
55347;BME280;41218;55.700;38.270;2023-04-15T00:13:08;101020.16;;;1.25;33.05
55347;BME280;41218;55.700;38.270;2023-04-15T00:18:09;101028.88;;;1.22;33.29
55347;BME280;41218;55.700;38.270;2023-04-15T00:23:10;101034.06;;;1.18;33.43
55347;BME280;41218;55.700;38.270;2023-04-15T00:28:11;101048.22;;;1.15;33.40
55347;BME280;41218;55.700;38.270;2023-04-15T00:33:12;101039.53;;;1.08;33.51
55347;BME280;41218;55.700;38.270;2023-04-15T00:38:13;101049.34;;;1.04;33.65
55347;BME280;41218;55.700;38.270;2023-04-15T00:43:13;101055.06;;;1.02;33.88
55347;BME280;41218;55.700;38.270;2023-04-15T00:48:15;101052.34;;;0.92;33.60
55347;BME280;41218;55.700;38.270;2023-04-15T00:53:16;101050.16;;;0.78;33.54
55347;BME280;41218;55.700;38.270;2023-04-15T00:58:17;101071.94;;;0.73;34.20
55347;BME280;41218;55.700;38.270;2023-04-15T01:03:17;101073.84;;;0.73;33.96
55347;BME280;41218;55.700;38.270;2023-04-15T01:08:18;101078.47;;;0.67;34.15
55347;BME280;41218;55.700;38.270;2023-04-15T01:13:19;101086.66;;;0.67;34.24
55347;BME280;41218;55.700;38.270;2023-04-15T01:18:20;101093.97;;;0.67;33.81
55347;BME280;41218;55.700;38.270;2023-04-15T01:23:21;101099.13;;;0.58;34.41
55347;BME280;41218;55.700;38.270;2023-04-15T01:28:25;101099.66;;;0.50;33.92
55347;BME280;41218;55.700;38.270;2023-04-15T01:33:26;101108.38;;;0.47;34.23
55347;BME280;41218;55.700;38.270;2023-04-15T01:38:27;101111.59;;;0.38;34.26
55347;BME280;41218;55.700;38.270;2023-04-15T01:43:29;101097.41;;;0.26;34.42
55347;BME280;41218;55.700;38.270;2023-04-15T01:48:29;101116.75;;;0.30;34.12
55347;BME280;41218;55.700;38.270;2023-04-15T01:53:30;101116.19;;;0.23;34.51
55347;BME280;41218;55.700;38.270;2023-04-15T01:58:30;101118.63;;;0.19;34.47
55347;BME280;41218;55.700;38.270;2023-04-15T02:03:31;101125.94;;;0.13;34.72
55347;BME280;41218;55.700;38.270;2023-04-15T02:08:32;101141.16;;;0.09;34.55
55347;BME280;41218;55.700;38.270;2023-04-15T02:13:33;101146.03;;;0.07;34.46
55347;BME280;41218;55.700;38.270;2023-04-15T02:18:33;101145.50;;;0.05;34.88
55347;BME280;41218;55.700;38.270;2023-04-15T02:23:34;101148.44;;;-0.02;34.76
55347;BME280;41218;55.700;38.270;2023-04-15T02:28:35;101155.25;;;0.01;35.11
55347;BME280;41218;55.700;38.270;2023-04-15T02:33:36;101154.44;;;0.01;35.00
55347;BME280;41218;55.700;38.270;2023-04-15T02:38:37;101156.56;;;-0.07;35.06
55347;BME280;41218;55.700;38.270;2023-04-15T02:43:39;101180.47;;;-0.09;35.01
55347;BME280;41218;55.700;38.270;2023-04-15T02:48:40;101186.47;;;-0.12;35.05
55347;BME280;41218;55.700;38.270;2023-04-15T02:53:41;101191.03;;;-0.17;35.49
55347;BME280;41218;55.700;38.270;2023-04-15T02:58:42;101208.38;;;-0.24;34.94
55347;BME280;41218;55.700;38.270;2023-04-15T03:03:44;101209.47;;;-0.25;35.02
55347;BME280;41218;55.700;38.270;2023-04-15T03:08:44;101216.53;;;-0.24;35.28
55347;BME280;41218;55.700;38.270;2023-04-15T03:13:45;101217.91;;;-0.21;35.21
55347;BME280;41218;55.700;38.270;2023-04-15T03:18:45;101222.84;;;-0.18;35.15
55347;BME280;41218;55.700;38.270;2023-04-15T03:23:47;101224.16;;;-0.21;35.72
55347;BME280;41218;55.700;38.270;2023-04-15T03:28:47;101236.44;;;-0.18;35.26
55347;BME280;41218;55.700;38.270;2023-04-15T03:33:48;101244.03;;;-0.20;35.21
55347;BME280;41218;55.700;38.270;2023-04-15T03:38:49;101244.56;;;-0.18;34.99
55347;BME280;41218;55.700;38.270;2023-04-15T03:43:49;101244.28;;;-0.16;35.06
55347;BME280;41218;55.700;38.270;2023-04-15T03:48:51;101247.56;;;-0.14;35.40
55347;BME280;41218;55.700;38.270;2023-04-15T03:53:51;101252.75;;;-0.13;35.17
55347;BME280;41218;55.700;38.270;2023-04-15T03:58:52;101256.31;;;-0.07;35.09
55347;BME280;41218;55.700;38.270;2023-04-15T04:03:52;101257.94;;;-0.06;34.94
55347;BME280;41218;55.700;38.270;2023-04-15T04:08:53;101262.94;;;0.02;34.83
55347;BME280;41218;55.700;38.270;2023-04-15T04:13:53;101272.19;;;0.06;35.19
55347;BME280;41218;55.700;38.270;2023-04-15T04:18:54;101274.38;;;0.09;34.62
55347;BME280;41218;55.700;38.270;2023-04-15T04:23:55;101271.72;;;0.19;34.81
55347;BME280;41218;55.700;38.270;2023-04-15T04:28:55;101277.72;;;0.22;34.56
55347;BME280;41218;55.700;38.270;2023-04-15T04:33:56;101282.13;;;0.33;34.53
55347;BME280;41218;55.700;38.270;2023-04-15T04:38:56;101278.38;;;0.44;34.73
55347;BME280;41218;55.700;38.270;2023-04-15T04:43:57;101271.06;;;0.50;34.13
55347;BME280;41218;55.700;38.270;2023-04-15T04:48:57;101275.75;;;0.65;34.66
55347;BME280;41218;55.700;38.270;2023-04-15T04:53:58;101281.22;;;0.75;34.74
55347;BME280;41218;55.700;38.270;2023-04-15T04:58:59;101285.34;;;0.83;33.89
55347;BME280;41218;55.700;38.270;2023-04-15T05:03:59;101281.56;;;0.89;34.36
55347;BME280;41218;55.700;38.270;2023-04-15T05:09:00;101290.03;;;0.97;33.60
55347;BME280;41218;55.700;38.270;2023-04-15T05:14:00;101277.53;;;1.07;33.94
55347;BME280;41218;55.700;38.270;2023-04-15T05:19:01;101266.91;;;1.10;33.34
55347;BME280;41218;55.700;38.270;2023-04-15T05:24:02;101280.31;;;1.32;33.71
55347;BME280;41218;55.700;38.270;2023-04-15T05:29:03;101281.66;;;1.45;33.51
55347;BME280;41218;55.700;38.270;2023-04-15T05:34:03;101284.41;;;1.50;33.42
55347;BME280;41218;55.700;38.270;2023-04-15T05:39:04;101286.59;;;1.64;32.57
55347;BME280;41218;55.700;38.270;2023-04-15T05:44:05;101289.84;;;1.76;33.00
55347;BME280;41218;55.700;38.270;2023-04-15T05:49:05;101292.31;;;1.88;32.68
55347;BME280;41218;55.700;38.270;2023-04-15T05:54:06;101305.13;;;1.97;32.51
55347;BME280;41218;55.700;38.270;2023-04-15T05:59:06;101313.56;;;2.11;32.67
55347;BME280;41218;55.700;38.270;2023-04-15T06:04:07;101306.75;;;2.19;32.16
55347;BME280;41218;55.700;38.270;2023-04-15T06:09:08;101299.09;;;2.21;32.07
55347;BME280;41218;55.700;38.270;2023-04-15T06:14:09;101311.31;;;2.39;31.92
55347;BME280;41218;55.700;38.270;2023-04-15T06:19:09;101308.84;;;2.53;31.83
55347;BME280;41218;55.700;38.270;2023-04-15T06:24:11;101311.28;;;2.54;31.20
55347;BME280;41218;55.700;38.270;2023-04-15T06:29:12;101316.19;;;2.68;31.36
55347;BME280;41218;55.700;38.270;2023-04-15T06:34:12;101317.50;;;2.75;31.31
55347;BME280;41218;55.700;38.270;2023-04-15T06:39:13;101313.31;;;2.93;31.25
55347;BME280;41218;55.700;38.270;2023-04-15T06:44:13;101315.72;;;3.05;31.37
55347;BME280;41218;55.700;38.270;2023-04-15T06:49:14;101319.22;;;3.21;31.06
55347;BME280;41218;55.700;38.270;2023-04-15T06:54:14;101316.94;;;3.33;30.59
55347;BME280;41218;55.700;38.270;2023-04-15T06:59:15;101321.00;;;3.41;30.80
55347;BME280;41218;55.700;38.270;2023-04-15T07:04:15;101325.59;;;3.51;30.58
55347;BME280;41218;55.700;38.270;2023-04-15T07:09:16;101334.81;;;3.60;30.39
55347;BME280;41218;55.700;38.270;2023-04-15T07:14:17;101327.94;;;3.63;30.43
55347;BME280;41218;55.700;38.270;2023-04-15T07:19:17;101326.81;;;3.69;29.62
55347;BME280;41218;55.700;38.270;2023-04-15T07:24:18;101331.41;;;3.78;29.80
55347;BME280;41218;55.700;38.270;2023-04-15T07:29:19;101328.28;;;3.90;30.09
55347;BME280;41218;55.700;38.270;2023-04-15T07:34:20;101330.22;;;3.90;28.62
55347;BME280;41218;55.700;38.270;2023-04-15T07:39:21;101326.91;;;3.93;28.94
55347;BME280;41218;55.700;38.270;2023-04-15T07:44:21;101330.31;;;4.09;29.07
55347;BME280;41218;55.700;38.270;2023-04-15T07:49:22;101333.22;;;4.22;29.19
55347;BME280;41218;55.700;38.270;2023-04-15T07:54:23;101328.72;;;4.32;29.21
55347;BME280;41218;55.700;38.270;2023-04-15T07:59:23;101321.78;;;4.45;28.52
55347;BME280;41218;55.700;38.270;2023-04-15T08:04:24;101317.34;;;4.49;28.77
55347;BME280;41218;55.700;38.270;2023-04-15T08:09:26;101311.50;;;4.55;28.36
55347;BME280;41218;55.700;38.270;2023-04-15T08:14:26;101314.91;;;4.71;28.08
55347;BME280;41218;55.700;38.270;2023-04-15T08:19:27;101325.22;;;4.79;28.22
55347;BME280;41218;55.700;38.270;2023-04-15T08:24:27;101312.50;;;4.89;28.21
55347;BME280;41218;55.700;38.270;2023-04-15T08:29:28;101308.97;;;5.07;27.85
55347;BME280;41218;55.700;38.270;2023-04-15T08:34:28;101309.56;;;5.23;27.58
55347;BME280;41218;55.700;38.270;2023-04-15T08:39:29;101309.97;;;5.35;26.75
55347;BME280;41218;55.700;38.270;2023-04-15T08:44:33;101307.88;;;5.46;27.00
55347;BME280;41218;55.700;38.270;2023-04-15T08:49:38;101315.06;;;5.61;26.87
55347;BME280;41218;55.700;38.270;2023-04-15T08:54:39;101307.91;;;5.79;26.86
55347;BME280;41218;55.700;38.270;2023-04-15T08:59:40;101293.22;;;5.89;26.92
55347;BME280;41218;55.700;38.270;2023-04-15T09:04:42;101306.78;;;5.99;26.83
55347;BME280;41218;55.700;38.270;2023-04-15T09:09:42;101298.31;;;6.14;26.79
55347;BME280;41218;55.700;38.270;2023-04-15T09:14:45;101290.69;;;6.25;26.19
55347;BME280;41218;55.700;38.270;2023-04-15T09:19:47;101282.84;;;6.32;26.51
55347;BME280;41218;55.700;38.270;2023-04-15T09:24:48;101285.19;;;6.53;26.04
55347;BME280;41218;55.700;38.270;2023-04-15T09:29:49;101284.50;;;6.61;26.21
55347;BME280;41218;55.700;38.270;2023-04-15T09:34:49;101276.34;;;6.70;26.09
55347;BME280;41218;55.700;38.270;2023-04-15T09:39:51;101286.50;;;6.83;25.51
55347;BME280;41218;55.700;38.270;2023-04-15T09:44:51;101282.03;;;6.87;25.59
55347;BME280;41218;55.700;38.270;2023-04-15T09:49:56;101277.53;;;7.05;25.48
55347;BME280;41218;55.700;38.270;2023-04-15T09:54:58;101290.88;;;7.12;25.70
55347;BME280;41218;55.700;38.270;2023-04-15T09:59:58;101279.44;;;7.18;25.38
55347;BME280;41218;55.700;38.270;2023-04-15T10:05:00;101282.38;;;7.22;24.82
55347;BME280;41218;55.700;38.270;2023-04-15T10:10:02;101269.25;;;7.19;24.82
55347;BME280;41218;55.700;38.270;2023-04-15T10:15:04;101267.63;;;7.18;24.54
55347;BME280;41218;55.700;38.270;2023-04-15T10:20:06;101266.25;;;7.29;25.18
55347;BME280;41218;55.700;38.270;2023-04-15T10:25:09;101273.97;;;7.41;24.74
55347;BME280;41218;55.700;38.270;2023-04-15T10:30:11;101273.03;;;7.46;24.58
55347;BME280;41218;55.700;38.270;2023-04-15T10:35:12;101269.22;;;7.55;24.89
55347;BME280;41218;55.700;38.270;2023-04-15T10:40:23;101271.66;;;7.57;23.88
55347;BME280;41218;55.700;38.270;2023-04-15T10:45:36;101274.97;;;7.68;24.88
55347;BME280;41218;55.700;38.270;2023-04-15T10:50:36;101271.84;;;7.83;24.94
55347;BME280;41218;55.700;38.270;2023-04-15T10:55:37;101261.94;;;7.82;24.63
55347;BME280;41218;55.700;38.270;2023-04-15T11:00:38;101262.84;;;7.91;25.02
55347;BME280;41218;55.700;38.270;2023-04-15T11:15:44;101258.13;;;8.23;24.64
55347;BME280;41218;55.700;38.270;2023-04-15T11:25:46;101269.53;;;8.39;24.46
55347;BME280;41218;55.700;38.270;2023-04-15T11:30:47;101262.78;;;8.45;23.99
55347;BME280;41218;55.700;38.270;2023-04-15T11:35:49;101255.84;;;8.48;24.12
55347;BME280;41218;55.700;38.270;2023-04-15T11:40:50;101244.84;;;8.65;24.21
55347;BME280;41218;55.700;38.270;2023-04-15T11:45:54;101236.75;;;8.69;23.48
55347;BME280;41218;55.700;38.270;2023-04-15T11:50:58;101243.28;;;8.81;24.01
55347;BME280;41218;55.700;38.270;2023-04-15T11:55:58;101244.59;;;8.93;24.18
55347;BME280;41218;55.700;38.270;2023-04-15T12:01:00;101238.94;;;9.15;24.01
55347;BME280;41218;55.700;38.270;2023-04-15T12:06:11;101227.59;;;9.26;23.68
55347;BME280;41218;55.700;38.270;2023-04-15T12:11:12;101213.44;;;9.45;23.92
55347;BME280;41218;55.700;38.270;2023-04-15T12:16:15;101215.72;;;9.51;24.14
55347;BME280;41218;55.700;38.270;2023-04-15T12:21:19;101220.41;;;9.59;23.55
55347;BME280;41218;55.700;38.270;2023-04-15T12:26:49;101211.16;;;9.55;22.46
55347;BME280;41218;55.700;38.270;2023-04-15T12:31:53;101215.38;;;9.53;23.65
55347;BME280;41218;55.700;38.270;2023-04-15T12:36:55;101211.66;;;9.57;23.55
55347;BME280;41218;55.700;38.270;2023-04-15T12:41:58;101198.19;;;9.56;23.94
55347;BME280;41218;55.700;38.270;2023-04-15T12:46:59;101213.25;;;9.58;23.63
55347;BME280;41218;55.700;38.270;2023-04-15T12:52:01;101209.19;;;9.65;23.45
55347;BME280;41218;55.700;38.270;2023-04-15T12:57:02;101203.03;;;9.68;23.34
55347;BME280;41218;55.700;38.270;2023-04-15T13:02:03;101204.00;;;9.72;23.65
55347;BME280;41218;55.700;38.270;2023-04-15T13:07:04;101201.56;;;9.70;23.39
55347;BME280;41218;55.700;38.270;2023-04-15T13:12:04;101199.59;;;9.71;23.57
55347;BME280;41218;55.700;38.270;2023-04-15T13:17:05;101189.19;;;9.76;23.46
55347;BME280;41218;55.700;38.270;2023-04-15T13:22:09;101200.19;;;9.85;23.60
55347;BME280;41218;55.700;38.270;2023-04-15T13:27:10;101194.31;;;10.04;23.93
55347;BME280;41218;55.700;38.270;2023-04-15T13:32:11;101180.97;;;10.06;23.53
55347;BME280;41218;55.700;38.270;2023-04-15T13:37:11;101192.31;;;10.13;23.55
55347;BME280;41218;55.700;38.270;2023-04-15T13:42:12;101190.03;;;10.15;23.58
55347;BME280;41218;55.700;38.270;2023-04-15T13:47:12;101186.41;;;10.23;23.58
55347;BME280;41218;55.700;38.270;2023-04-15T13:52:15;101198.41;;;10.28;23.58
55347;BME280;41218;55.700;38.270;2023-04-15T13:57:15;101197.81;;;10.22;23.54
55347;BME280;41218;55.700;38.270;2023-04-15T14:02:16;101197.47;;;10.23;23.19
55347;BME280;41218;55.700;38.270;2023-04-15T14:07:16;101200.09;;;10.20;23.57
55347;BME280;41218;55.700;38.270;2023-04-15T14:12:17;101194.38;;;10.25;23.47
55347;BME280;41218;55.700;38.270;2023-04-15T14:17:17;101194.53;;;10.29;23.69
55347;BME280;41218;55.700;38.270;2023-04-15T14:22:18;101191.59;;;10.25;23.87
55347;BME280;41218;55.700;38.270;2023-04-15T14:27:19;101185.75;;;10.27;23.77
55347;BME280;41218;55.700;38.270;2023-04-15T14:32:19;101188.38;;;10.23;23.73
55347;BME280;41218;55.700;38.270;2023-04-15T14:37:20;101198.31;;;10.15;23.31
55347;BME280;41218;55.700;38.270;2023-04-15T14:42:20;101190.06;;;10.07;23.31
55347;BME280;41218;55.700;38.270;2023-04-15T14:47:21;101193.94;;;10.06;23.57
55347;BME280;41218;55.700;38.270;2023-04-15T14:52:21;101190.88;;;10.07;23.71
55347;BME280;41218;55.700;38.270;2023-04-15T14:57:22;101182.59;;;10.07;23.61
55347;BME280;41218;55.700;38.270;2023-04-15T15:02:23;101177.25;;;10.02;23.66
55347;BME280;41218;55.700;38.270;2023-04-15T15:07:23;101169.13;;;9.97;23.60
55347;BME280;41218;55.700;38.270;2023-04-15T15:12:24;101153.44;;;9.80;23.98
55347;BME280;41218;55.700;38.270;2023-04-15T15:17:24;101177.50;;;9.79;24.02
55347;BME280;41218;55.700;38.270;2023-04-15T15:22:25;101168.75;;;9.69;24.03
55347;BME280;41218;55.700;38.270;2023-04-15T15:27:25;101175.09;;;9.60;24.33
55347;BME280;41218;55.700;38.270;2023-04-15T15:32:26;101175.28;;;9.55;24.60
55347;BME280;41218;55.700;38.270;2023-04-15T15:37:29;101175.44;;;9.50;24.99
55347;BME280;41218;55.700;38.270;2023-04-15T15:42:33;101180.66;;;9.43;25.24
55347;BME280;41218;55.700;38.270;2023-04-15T15:47:33;101178.72;;;9.35;25.58
55347;BME280;41218;55.700;38.270;2023-04-15T15:52:34;101176.81;;;9.27;26.49
55347;BME280;41218;55.700;38.270;2023-04-15T15:57:35;101188.97;;;9.17;26.72
55347;BME280;41218;55.700;38.270;2023-04-15T16:02:36;101176.47;;;9.02;27.30
55347;BME280;41218;55.700;38.270;2023-04-15T16:07:36;101173.53;;;8.90;27.60
55347;BME280;41218;55.700;38.270;2023-04-15T16:12:37;101181.63;;;8.77;28.22
55347;BME280;41218;55.700;38.270;2023-04-15T16:17:37;101185.03;;;8.66;28.34
55347;BME280;41218;55.700;38.270;2023-04-15T16:22:38;101185.19;;;8.52;28.91
55347;BME280;41218;55.700;38.270;2023-04-15T16:27:38;101197.09;;;8.38;29.35
55347;BME280;41218;55.700;38.270;2023-04-15T16:32:39;101186.84;;;8.21;29.47
55347;BME280;41218;55.700;38.270;2023-04-15T16:37:39;101201.53;;;8.08;29.76
55347;BME280;41218;55.700;38.270;2023-04-15T16:42:40;101191.38;;;7.86;30.67
55347;BME280;41218;55.700;38.270;2023-04-15T16:47:42;101208.97;;;7.76;30.70
55347;BME280;41218;55.700;38.270;2023-04-15T16:52:43;101206.13;;;7.59;31.06
55347;BME280;41218;55.700;38.270;2023-04-15T16:57:43;101213.13;;;7.42;31.54
55347;BME280;41218;55.700;38.270;2023-04-15T17:02:44;101208.63;;;7.24;31.40
55347;BME280;41218;55.700;38.270;2023-04-15T17:07:45;101208.47;;;7.07;31.96
55347;BME280;41218;55.700;38.270;2023-04-15T17:12:45;101209.16;;;6.90;32.42
55347;BME280;41218;55.700;38.270;2023-04-15T17:17:46;101213.03;;;6.75;32.35
55347;BME280;41218;55.700;38.270;2023-04-15T17:22:47;101215.91;;;6.56;32.89
55347;BME280;41218;55.700;38.270;2023-04-15T17:27:48;101224.16;;;6.42;33.10
55347;BME280;41218;55.700;38.270;2023-04-15T17:32:50;101226.91;;;6.28;33.51
55347;BME280;41218;55.700;38.270;2023-04-15T17:37:51;101237.38;;;6.12;33.28
55347;BME280;41218;55.700;38.270;2023-04-15T17:42:51;101233.19;;;6.01;33.87
55347;BME280;41218;55.700;38.270;2023-04-15T17:47:52;101240.25;;;5.88;33.89
55347;BME280;41218;55.700;38.270;2023-04-15T17:52:52;101230.69;;;5.72;34.01
55347;BME280;41218;55.700;38.270;2023-04-15T17:57:53;101243.72;;;5.61;34.23
55347;BME280;41218;55.700;38.270;2023-04-15T18:02:53;101240.13;;;5.47;34.77
55347;BME280;41218;55.700;38.270;2023-04-15T18:07:54;101236.81;;;5.31;35.01
55347;BME280;41218;55.700;38.270;2023-04-15T18:12:54;101250.44;;;5.17;34.92
55347;BME280;41218;55.700;38.270;2023-04-15T18:17:55;101248.16;;;5.05;35.22
55347;BME280;41218;55.700;38.270;2023-04-15T18:22:56;101242.59;;;4.91;35.45
55347;BME280;41218;55.700;38.270;2023-04-15T18:27:56;101250.13;;;4.80;35.72
55347;BME280;41218;55.700;38.270;2023-04-15T18:32:57;101241.53;;;4.68;35.97
55347;BME280;41218;55.700;38.270;2023-04-15T18:37:57;101241.34;;;4.59;35.77
55347;BME280;41218;55.700;38.270;2023-04-15T18:42:58;101236.63;;;4.46;36.32
55347;BME280;41218;55.700;38.270;2023-04-15T18:47:59;101251.47;;;4.40;36.51
55347;BME280;41218;55.700;38.270;2023-04-15T18:52:59;101250.75;;;4.29;36.52
55347;BME280;41218;55.700;38.270;2023-04-15T18:58:00;101258.44;;;4.27;36.77
55347;BME280;41218;55.700;38.270;2023-04-15T19:03:00;101256.09;;;4.15;36.95
55347;BME280;41218;55.700;38.270;2023-04-15T19:08:01;101262.44;;;4.11;36.87
55347;BME280;41218;55.700;38.270;2023-04-15T19:13:01;101263.06;;;4.03;36.97
55347;BME280;41218;55.700;38.270;2023-04-15T19:18:02;101266.16;;;3.96;37.25
55347;BME280;41218;55.700;38.270;2023-04-15T19:23:04;101262.75;;;3.80;37.22
55347;BME280;41218;55.700;38.270;2023-04-15T19:28:05;101268.22;;;3.80;37.63
55347;BME280;41218;55.700;38.270;2023-04-15T19:33:06;101273.75;;;3.70;37.84
55347;BME280;41218;55.700;38.270;2023-04-15T19:38:06;101276.00;;;3.63;37.69
55347;BME280;41218;55.700;38.270;2023-04-15T19:43:07;101287.81;;;3.58;38.05
55347;BME280;41218;55.700;38.270;2023-04-15T19:48:07;101281.00;;;3.50;38.10
55347;BME280;41218;55.700;38.270;2023-04-15T19:53:08;101290.09;;;3.40;38.34
55347;BME280;41218;55.700;38.270;2023-04-15T19:58:08;101273.00;;;3.25;38.56
55347;BME280;41218;55.700;38.270;2023-04-15T20:03:09;101289.09;;;3.26;38.33
55347;BME280;41218;55.700;38.270;2023-04-15T20:08:10;101298.75;;;3.18;38.67
55347;BME280;41218;55.700;38.270;2023-04-15T20:13:10;101305.03;;;3.14;38.66
55347;BME280;41218;55.700;38.270;2023-04-15T20:18:11;101301.00;;;3.01;39.07
55347;BME280;41218;55.700;38.270;2023-04-15T20:23:11;101305.13;;;2.93;38.94
55347;BME280;41218;55.700;38.270;2023-04-15T20:28:12;101300.78;;;2.87;39.25
55347;BME280;41218;55.700;38.270;2023-04-15T20:33:12;101316.91;;;2.84;39.27
55347;BME280;41218;55.700;38.270;2023-04-15T20:38:13;101318.03;;;2.77;39.28
55347;BME280;41218;55.700;38.270;2023-04-15T20:43:15;101316.16;;;2.73;39.31
55347;BME280;41218;55.700;38.270;2023-04-15T20:48:16;101325.44;;;2.67;39.56
55347;BME280;41218;55.700;38.270;2023-04-15T20:53:18;101317.28;;;2.56;39.86
55347;BME280;41218;55.700;38.270;2023-04-15T20:58:18;101318.94;;;2.47;40.03
55347;BME280;41218;55.700;38.270;2023-04-15T21:03:19;101325.50;;;2.41;39.87
55347;BME280;41218;55.700;38.270;2023-04-15T21:08:20;101329.06;;;2.42;40.24
55347;BME280;41218;55.700;38.270;2023-04-15T21:13:28;101336.72;;;2.34;40.06
55347;BME280;41218;55.700;38.270;2023-04-15T21:18:28;101330.44;;;2.29;40.60
55347;BME280;41218;55.700;38.270;2023-04-15T21:23:29;101337.56;;;2.19;40.85
55347;BME280;41218;55.700;38.270;2023-04-15T21:28:30;101336.19;;;2.17;40.60
55347;BME280;41218;55.700;38.270;2023-04-15T21:33:30;101337.59;;;2.09;40.72
55347;BME280;41218;55.700;38.270;2023-04-15T21:38:32;101342.22;;;2.04;40.66
55347;BME280;41218;55.700;38.270;2023-04-15T21:43:32;101345.22;;;1.97;40.96
55347;BME280;41218;55.700;38.270;2023-04-15T21:48:33;101352.31;;;1.93;41.09
55347;BME280;41218;55.700;38.270;2023-04-15T21:53:33;101334.03;;;1.78;41.22
55347;BME280;41218;55.700;38.270;2023-04-15T21:58:34;101355.56;;;1.79;41.33
55347;BME280;41218;55.700;38.270;2023-04-15T22:03:35;101368.09;;;1.75;41.49
55347;BME280;41218;55.700;38.270;2023-04-15T22:08:35;101353.91;;;1.68;41.31
55347;BME280;41218;55.700;38.270;2023-04-15T22:13:36;101361.00;;;1.64;41.53
55347;BME280;41218;55.700;38.270;2023-04-15T22:18:36;101359.34;;;1.53;41.34
55347;BME280;41218;55.700;38.270;2023-04-15T22:23:37;101360.72;;;1.50;41.70
55347;BME280;41218;55.700;38.270;2023-04-15T22:28:37;101357.13;;;1.39;42.03
55347;BME280;41218;55.700;38.270;2023-04-15T22:33:38;101356.31;;;1.34;41.85
55347;BME280;41218;55.700;38.270;2023-04-15T22:38:38;101355.75;;;1.27;41.91
55347;BME280;41218;55.700;38.270;2023-04-15T22:43:39;101370.72;;;1.29;41.93
55347;BME280;41218;55.700;38.270;2023-04-15T22:48:39;101351.06;;;1.12;42.37
55347;BME280;41218;55.700;38.270;2023-04-15T22:53:41;101375.03;;;1.15;42.39
55347;BME280;41218;55.700;38.270;2023-04-15T22:58:42;101364.91;;;1.00;42.43
55347;BME280;41218;55.700;38.270;2023-04-15T23:03:49;101380.97;;;0.96;42.92
55347;BME280;41218;55.700;38.270;2023-04-15T23:08:50;101377.13;;;0.92;42.42
55347;BME280;41218;55.700;38.270;2023-04-15T23:13:51;101385.25;;;0.87;43.06
55347;BME280;41218;55.700;38.270;2023-04-15T23:18:52;101378.94;;;0.71;42.87
55347;BME280;41218;55.700;38.270;2023-04-15T23:23:53;101396.38;;;0.75;42.64
55347;BME280;41218;55.700;38.270;2023-04-15T23:28:54;101404.25;;;0.72;42.75
55347;BME280;41218;55.700;38.270;2023-04-15T23:33:55;101406.97;;;0.72;42.64
55347;BME280;41218;55.700;38.270;2023-04-15T23:38:55;101418.34;;;0.64;43.13
55347;BME280;41218;55.700;38.270;2023-04-15T23:43:56;101406.84;;;0.51;42.95
55347;BME280;41218;55.700;38.270;2023-04-15T23:48:56;101423.69;;;0.48;42.85
55347;BME280;41218;55.700;38.270;2023-04-15T23:53:57;101419.81;;;0.39;43.19
55347;BME280;41218;55.700;38.270;2023-04-15T23:58:57;101412.41;;;0.34;43.16
